WetterOnline ( https://www.wetteronline.de )

Wetter aktuell Warnau

Aktuelles Wetter: Dörnick (28m)

6-stündlich | Neueste Meldungen
Ortszeit Temperatur Wetter
Mo, 23.05. 20:00 20.3° C fast wolkenlos
Mo, 23.05. 14:00 20.6° C wolkig
Mo, 23.05. 8:00 13.1° C leicht bewölkt
Mo, 23.05. 2:00 9.4° C wolkig
So, 22.05. 20:00 15.2° C wolkig
So, 22.05. 14:00 15.2° C bewölkt
So, 22.05. 8:00 11.7° C bewölkt
So, 22.05. 2:00 11.5° C bedeckt
Ortszeit Temperatur Wetter
Mo, 23.05. 22:30 18.2° C bedeckt
Mo, 23.05. 22:20 18.2° C bedeckt
Mo, 23.05. 22:10 18.2° C bedeckt
Mo, 23.05. 22:00 18.3° C wolkig
Mo, 23.05. 21:50 18.3° C wolkig
Mo, 23.05. 21:40 18.6° C leicht bewölkt
Mo, 23.05. 21:30 18.9° C wolkig
Mo, 23.05. 21:00 19.3° C wolkig
Mo, 23.05. 20:30 20.0° C wolkig
Mo, 23.05. 20:00 20.3° C fast wolkenlos
Mo, 23.05. 19:30 20.8° C wolkenlos
Ortszeit Relative Feuchte Sichtweite
Mo, 23.05. 20:00 49% 55 km
Mo, 23.05. 14:00 51% 35 km
Mo, 23.05. 8:00 73% 50 km
Mo, 23.05. 2:00 93% 45 km
So, 22.05. 20:00 74% 55 km
So, 22.05. 14:00 67% 60 km
So, 22.05. 8:00 88% 29 km
So, 22.05. 2:00 84% 40 km
Ortszeit Relative Feuchte Sichtweite
Mo, 23.05. 22:30 54% 55 km
Mo, 23.05. 22:20 54% -
Mo, 23.05. 22:10 54% -
Mo, 23.05. 22:00 55% 55 km
Mo, 23.05. 21:50 55% -
Mo, 23.05. 21:40 53% -
Mo, 23.05. 21:30 53% 55 km
Mo, 23.05. 21:00 52% 60 km
Mo, 23.05. 20:30 49% 55 km
Mo, 23.05. 20:00 49% 55 km
Mo, 23.05. 19:30 48% >70 km
Ortszeit Niederschlagsmenge Niederschlagsart
Mo, 23.05. 20:00 0.0 l/m2 in 12 Std. -
Mo, 23.05. 14:00 0.0 l/m2 in 6 Std. -
Mo, 23.05. 8:00 0.0 l/m2 in 12 Std. -
Mo, 23.05. 2:00 0.0 l/m2 in 6 Std. -
So, 22.05. 20:00 0.0 l/m2 in 12 Std. -
So, 22.05. 14:00 0.0 l/m2 in 6 Std. -
So, 22.05. 8:00 0.1 l/m2 in 12 Std. -
So, 22.05. 2:00 0.1 l/m2 in 6 Std. Sprühregen
Ortszeit Niederschlagsmenge Niederschlagsart
Mo, 23.05. 22:30 0.0 l/m2 in 1 Std. -
Mo, 23.05. 22:20 keine Meldung -
Mo, 23.05. 22:10 keine Meldung -
Mo, 23.05. 22:00 0.0 l/m2 in 1 Std. -
Mo, 23.05. 21:50 keine Meldung -
Mo, 23.05. 21:40 keine Meldung -
Mo, 23.05. 21:30 0.0 l/m2 in 1 Std. -
Mo, 23.05. 21:00 0.0 l/m2 in 1 Std. -
Mo, 23.05. 20:30 0.0 l/m2 in 1 Std. -
Mo, 23.05. 20:00 0.0 l/m2 in 1 Std. -
Mo, 23.05. 19:30 0.0 l/m2 in 1 Std. -
Ortszeit Stärke Spitze Richtung
km/h Bft. km/h Grad Sektor
Mo, 23.05. 20:00 13 3 37 110° O
Mo, 23.05. 14:00 20 4 33 150° SO
Mo, 23.05. 8:00 11 2 18 130° SO
Mo, 23.05. 2:00 4 1 14 110° O
So, 22.05. 20:00 9 2 17 140° SO
So, 22.05. 14:00 7 2 25 30° NO
So, 22.05. 8:00 11 2 18 270° W
So, 22.05. 2:00 7 2 32 280° W
Ortszeit Stärke Spitze Richtung
km/h Bft. km/h Grad Sektor
Mo, 23.05. 22:30 14 3 32 110° O
Mo, 23.05. 22:20 14 3 - 110° O
Mo, 23.05. 22:10 17 3 - 110° O
Mo, 23.05. 22:00 14 3 32 110° O
Mo, 23.05. 21:50 14 3 - 110° O
Mo, 23.05. 21:40 17 3 - 120° SO
Mo, 23.05. 21:30 14 3 29 110° O
Mo, 23.05. 21:00 14 3 32 120° SO
Mo, 23.05. 20:30 14 3 25 120° SO
Mo, 23.05. 20:00 13 3 28 110° O
Mo, 23.05. 19:30 14 3 29 120° SO
Ortszeit Untergrenze Bedeckung Gattung
total tief tief mittel hoch
Mo, 23.05. 20:00 10500 m 2/8 0/8 - - -
Mo, 23.05. 14:00 6900 m 8/8 8/8 - - -
Mo, 23.05. 8:00 3000 m 4/8 4/8 - - -
Mo, 23.05. 2:00 7800 m 8/8 0/8 - - -
So, 22.05. 20:00 1020 m 8/8 2/8 - - -
So, 22.05. 14:00 750 m 7/8 7/8 - - -
So, 22.05. 8:00 270 m 8/8 6/8 - - -
So, 22.05. 2:00 810 m 8/8 8/8 - - -
Ortszeit Bedeckungsgrad in Achtel und Wolkenuntergrenze
Mo, 23.05. 22:30 6(3600m) 8(5700m) 8(6900m)
Mo, 23.05. 22:20 6(3600m) 8(5700m) 8(6900m)
Mo, 23.05. 22:10 8
Mo, 23.05. 22:00 4(6000m) 6(7500m)
Mo, 23.05. 21:50 4(6000m) 6(7500m)
Mo, 23.05. 21:40 3
Mo, 23.05. 21:30 4(3000m) 7(8700m)
Mo, 23.05. 21:00 8(9000m)
Mo, 23.05. 20:30 5(9000m) 7(10500m)
Mo, 23.05. 20:00 2(10500m)
Mo, 23.05. 19:30 keine Wolken
Ortszeit Luftdruck NN (hPa) Tendenz (hPa in 3 Std.)
Mo, 23.05. 20:00 1001 - 2,6
Mo, 23.05. 14:00 1006 - 2,5
Mo, 23.05. 8:00 1011 - 1,1
Mo, 23.05. 2:00 1013 - 0,9
So, 22.05. 20:00 1015 - 0,4
So, 22.05. 14:00 1016 - 0,4
So, 22.05. 8:00 1017 + 0,3
So, 22.05. 2:00 1017 - 0,4
Ortszeit Luftdruck NN (hPa) Tendenz (hPa in 3 Std.)
Mo, 23.05. 22:30 999 - 1,6
Mo, 23.05. 22:20 999 keine Meldung
Mo, 23.05. 22:10 1000 keine Meldung
Mo, 23.05. 22:00 1000 - 1,5
Mo, 23.05. 21:50 1000 keine Meldung
Mo, 23.05. 21:40 1000 keine Meldung
Mo, 23.05. 21:30 1000 - 1,7
Mo, 23.05. 21:00 1000 - 2,0
Mo, 23.05. 20:30 1000 - 2,4
Mo, 23.05. 20:00 1001 - 2,6
Mo, 23.05. 19:30 1001 - 2,8
Ortszeit Schneehöhe (cm)
Mo, 23.05. 20:00 0
Mo, 23.05. 14:00 0
Mo, 23.05. 8:00 0
Mo, 23.05. 2:00 0
So, 22.05. 20:00 0
So, 22.05. 14:00 0
So, 22.05. 8:00 0
So, 22.05. 2:00 0
Ortszeit Schneehöhe (cm)
Mo, 23.05. 22:30 0
Mo, 23.05. 22:20 0
Mo, 23.05. 22:10 0
Mo, 23.05. 22:00 0
Mo, 23.05. 21:50 0
Mo, 23.05. 21:40 0
Mo, 23.05. 21:30 0
Mo, 23.05. 21:00 0
Mo, 23.05. 20:30 0
Mo, 23.05. 20:00 0
Mo, 23.05. 19:30 0
Link zu dieser Seite / Seite empfehlen

Das Wetter in ...